Time;durP1;ratioP1;P1;durP2;ratioP2;P2;SDS_P1;SDS_P2;PMS_P1;PMS_P2;Temp;Humidity;BMP_temperature;BMP_pressure;BME280_temperature;BME280_humidity;BME280_pressure;Samples;Min_cycle;Max_cycle;Signal;HPM_P1;HPM_P2
2023/06/23 00:03:09;;;;;;;;;;;;;;;18.35;57.14941;101991.1;;;;-68
2023/06/23 00:07:55;;;;;;;0.2;0.1;;;;;;;;;;;;;-66
2023/06/23 00:08:10;;;;;;;;;;;;;;;18.3;57.4834;102002.5;;;;-69
2023/06/23 00:13:10;;;;;;;;;;;;;;;18.24;57.31543;102006.4;;;;-68
2023/06/23 00:18:10;;;;;;;;;;;;;;;18.23;57.28027;102011.3;;;;-67
2023/06/23 00:23:09;;;;;;;;;;;;;;;18.19;58.02344;102014.4;;;;-68
2023/06/23 00:28:10;;;;;;;;;;;;;;;18.11;57.75293;102020.6;;;;-69
2023/06/23 00:33:09;;;;;;;;;;;;;;;18.08;57.91895;102024.2;;;;-67
2023/06/23 00:37:57;;;;;;;0.2;0.1;;;;;;;;;;;;;-68
2023/06/23 00:38:09;;;;;;;;;;;;;;;18.03;57.92383;102022.4;;;;-68
2023/06/23 00:43:09;;;;;;;;;;;;;;;17.99;58.39355;102020.2;;;;-68
2023/06/23 00:48:13;;;;;;;;;;;;;;;17.91;58.24707;102020.4;;;;-67
2023/06/23 00:53:10;;;;;;;;;;;;;;;17.91;58.41699;102023.3;;;;-68
2023/06/23 00:58:10;;;;;;;;;;;;;;;17.79;58.35645;102026.3;;;;-68
2023/06/23 01:03:10;;;;;;;;;;;;;;;17.81;58.7207;102031.1;;;;-66
2023/06/23 01:08:04;;;;;;;0.2;0.1;;;;;;;;;;;;;-67
2023/06/23 01:08:30;;;;;;;;;;;;;;;17.75;58.70215;102041;;;;-68
2023/06/23 01:13:17;;;;;;;;;;;;;;;17.71;58.59473;102050;;;;-67
2023/06/23 01:18:13;;;;;;;;;;;;;;;17.71;58.83203;102053.2;;;;-67
2023/06/23 01:23:23;;;;;;;;;;;;;;;17.66;58.82617;102051.5;;;;-67
2023/06/23 01:28:21;;;;;;;;;;;;;;;17.64;58.90137;102053.9;;;;-67
2023/06/23 01:33:12;;;;;;;;;;;;;;;17.6;58.73828;102056.7;;;;-68
2023/06/23 01:38:06;;;;;;;0.2;0.1;;;;;;;;;;;;;-69
2023/06/23 01:38:20;;;;;;;;;;;;;;;17.56;59.0957;102058.2;;;;-70
2023/06/23 01:43:10;;;;;;;;;;;;;;;17.53;59.48828;102065.7;;;;-68
2023/06/23 01:48:11;;;;;;;;;;;;;;;17.55;59.35449;102076.4;;;;-67
2023/06/23 01:53:10;;;;;;;;;;;;;;;17.47;59.38867;102079.8;;;;-68
2023/06/23 01:58:10;;;;;;;;;;;;;;;17.45;59.12598;102082;;;;-66
2023/06/23 02:03:10;;;;;;;;;;;;;;;17.4;59.53809;102090.1;;;;-69
2023/06/23 02:08:06;;;;;;;0.2;0.1;;;;;;;;;;;;;-68
2023/06/23 02:08:16;;;;;;;;;;;;;;;17.39;59.44434;102095.1;;;;-67
2023/06/23 02:13:11;;;;;;;;;;;;;;;17.32;59.36816;102102.6;;;;-69
2023/06/23 02:18:11;;;;;;;;;;;;;;;17.28;59.31836;102104.1;;;;-67
2023/06/23 02:23:10;;;;;;;;;;;;;;;17.28;59.63477;102109.3;;;;-69
2023/06/23 02:28:10;;;;;;;;;;;;;;;17.24;59.45898;102106.1;;;;-68
2023/06/23 02:33:09;;;;;;;;;;;;;;;17.2;59.60156;102122.9;;;;-68
2023/06/23 02:38:12;;;;;;;0.2;0;;;;;;;;;;;;;-69
2023/06/23 02:38:25;;;;;;;;;;;;;;;17.17;59.86914;102133.9;;;;-69
2023/06/23 02:43:17;;;;;;;;;;;;;;;17.18;60.08594;102135.5;;;;-68
2023/06/23 02:48:12;;;;;;;;;;;;;;;17.22;60.14746;102144.8;;;;-67
2023/06/23 02:53:12;;;;;;;;;;;;;;;17.28;60.18848;102160;;;;-67
2023/06/23 02:58:11;;;;;;;;;;;;;;;17.33;60.39941;102165.3;;;;-67
2023/06/23 03:03:14;;;;;;;;;;;;;;;17.36;59.98535;102160.5;;;;-68
2023/06/23 03:08:10;;;;;;;;;;;;;;;17.45;60.67578;102159.4;;;;-68
2023/06/23 03:08:20;;;;;;;0.2;0.1;;;;;;;;;;;;;-68
2023/06/23 03:13:09;;;;;;;;;;;;;;;17.47;60.74512;102162.8;;;;-68
2023/06/23 03:18:14;;;;;;;;;;;;;;;17.49;60.88574;102174.6;;;;-68
2023/06/23 03:23:12;;;;;;;;;;;;;;;17.52;60.90039;102180.7;;;;-68
2023/06/23 03:28:11;;;;;;;;;;;;;;;17.52;61.09277;102182.6;;;;-68
2023/06/23 03:33:20;;;;;;;;;;;;;;;17.51;61.35059;102179.3;;;;-68
2023/06/23 03:38:12;;;;;;;;;;;;;;;17.47;61.12891;102184.3;;;;-69
2023/06/23 03:38:23;;;;;;;0.2;0.1;;;;;;;;;;;;;-69
2023/06/23 03:43:12;;;;;;;;;;;;;;;17.48;61.49316;102193;;;;-69
2023/06/23 03:48:12;;;;;;;;;;;;;;;17.48;61.41406;102202.2;;;;-67
2023/06/23 03:53:10;;;;;;;;;;;;;;;17.49;61.49512;102206.2;;;;-68
2023/06/23 03:58:10;;;;;;;;;;;;;;;17.49;61.75488;102208.8;;;;-67
2023/06/23 04:03:10;;;;;;;;;;;;;;;17.49;61.86816;102212.2;;;;-68
2023/06/23 04:08:12;;;;;;;;;;;;;;;17.49;61.78906;102210.2;;;;-68
2023/06/23 04:08:22;;;;;;;0.2;0.1;;;;;;;;;;;;;-68
2023/06/23 04:13:10;;;;;;;;;;;;;;;17.47;61.79785;102212.9;;;;-68
2023/06/23 04:18:10;;;;;;;;;;;;;;;17.49;61.78711;102227.3;;;;-70
2023/06/23 04:23:09;;;;;;;;;;;;;;;17.48;61.88965;102233.5;;;;-66
2023/06/23 04:28:12;;;;;;;;;;;;;;;17.5;61.59766;102243.8;;;;-68
2023/06/23 04:33:09;;;;;;;;;;;;;;;17.52;61.53418;102241.8;;;;-68
2023/06/23 04:38:12;;;;;;;;;;;;;;;17.54;61.7627;102245.4;;;;-68
2023/06/23 04:38:22;;;;;;;0.3;0.1;;;;;;;;;;;;;-68
2023/06/23 04:43:13;;;;;;;;;;;;;;;17.58;61.64355;102238.2;;;;-66
2023/06/23 04:48:12;;;;;;;;;;;;;;;17.63;61.86523;102229.8;;;;-68
2023/06/23 04:53:13;;;;;;;;;;;;;;;17.64;61.87695;102233.6;;;;-67
2023/06/23 04:58:12;;;;;;;;;;;;;;;17.72;61.83301;102244.4;;;;-68
2023/06/23 05:03:10;;;;;;;;;;;;;;;17.78;61.72754;102248.9;;;;-69
2023/06/23 05:08:10;;;;;;;;;;;;;;;17.82;61.87012;102251.6;;;;-68
2023/06/23 05:08:20;;;;;;;0.3;0.1;;;;;;;;;;;;;-69
2023/06/23 05:13:10;;;;;;;;;;;;;;;17.91;62.44727;102256.5;;;;-67
2023/06/23 05:18:11;;;;;;;;;;;;;;;18.03;63.16602;102257.3;;;;-68
2023/06/23 05:23:11;;;;;;;;;;;;;;;18.17;63.46875;102259.1;;;;-68
2023/06/23 05:28:10;;;;;;;;;;;;;;;18.54;63.64551;102267.6;;;;-67
2023/06/23 05:33:11;;;;;;;;;;;;;;;19;62.88379;102269.8;;;;-68
2023/06/23 05:38:10;;;;;;;;;;;;;;;19.29;63.83301;102273.4;;;;-68
2023/06/23 05:38:23;;;;;;;0.2;0.1;;;;;;;;;;;;;-70
2023/06/23 05:43:10;;;;;;;;;;;;;;;19.58;63.46582;102278;;;;-69
2023/06/23 05:48:12;;;;;;;;;;;;;;;19.91;63.78516;102281.2;;;;-68
2023/06/23 05:53:11;;;;;;;;;;;;;;;20.36;63.43945;102286.5;;;;-69
2023/06/23 05:58:11;;;;;;;;;;;;;;;20.89;62.03516;102294.5;;;;-67
2023/06/23 06:03:14;;;;;;;;;;;;;;;21.33;60.04297;102302.7;;;;-67
2023/06/23 06:08:10;;;;;;;;;;;;;;;21.74;59.25293;102302.7;;;;-68
2023/06/23 06:08:26;;;;;;;0.2;0.1;;;;;;;;;;;;;-68
2023/06/23 06:13:11;;;;;;;;;;;;;;;22.27;58.00781;102305.2;;;;-67
2023/06/23 06:18:12;;;;;;;;;;;;;;;22.72;57.09277;102311.6;;;;-69
2023/06/23 06:23:11;;;;;;;;;;;;;;;23.08;56.34863;102315.1;;;;-68
2023/06/23 06:28:11;;;;;;;;;;;;;;;23.41;56.68652;102318;;;;-68
2023/06/23 06:33:11;;;;;;;;;;;;;;;23.56;56.39648;102322.4;;;;-68
2023/06/23 06:38:10;;;;;;;;;;;;;;;23.73;56.23438;102325.3;;;;-68
2023/06/23 06:38:29;;;;;;;0.2;0.1;;;;;;;;;;;;;-68
2023/06/23 06:43:09;;;;;;;;;;;;;;;23.94;55.57031;102327.6;;;;-69
2023/06/23 06:48:12;;;;;;;;;;;;;;;23.96;55.74609;102331;;;;-67
2023/06/23 06:53:12;;;;;;;;;;;;;;;24.31;54.99512;102332;;;;-68
2023/06/23 06:58:09;;;;;;;;;;;;;;;24.74;53.52734;102337.3;;;;-68
2023/06/23 07:03:10;;;;;;;;;;;;;;;25.09;53.71973;102334.7;;;;-67
2023/06/23 07:08:09;;;;;;;;;;;;;;;25.38;53.14258;102335.8;;;;-67
2023/06/23 07:08:31;;;;;;;0.4;0.2;;;;;;;;;;;;;-68
2023/06/23 07:13:09;;;;;;;;;;;;;;;25.75;52.63281;102336.8;;;;-68
2023/06/23 07:18:09;;;;;;;;;;;;;;;25.99;52.02344;102338.3;;;;-69
2023/06/23 07:23:09;;;;;;;;;;;;;;;26.19;51.40039;102345.9;;;;-67
2023/06/23 07:28:09;;;;;;;;;;;;;;;26.4;50.79883;102354;;;;-68
2023/06/23 07:33:09;;;;;;;;;;;;;;;26.63;50.46582;102362;;;;-69
2023/06/23 07:38:09;;;;;;;;;;;;;;;26.76;50.50293;102366.5;;;;-69
2023/06/23 07:38:35;;;;;;;0.2;0.1;;;;;;;;;;;;;-68
2023/06/23 07:43:09;;;;;;;;;;;;;;;26.95;50.1084;102361.9;;;;-68
2023/06/23 07:48:09;;;;;;;;;;;;;;;27.14;49.82813;102355.6;;;;-67
2023/06/23 07:53:09;;;;;;;;;;;;;;;27.45;49.2002;102359.8;;;;-69
2023/06/23 07:58:09;;;;;;;;;;;;;;;27.51;49.10254;102363;;;;-68
2023/06/23 08:03:09;;;;;;;;;;;;;;;27.66;48.60742;102363.6;;;;-68
2023/06/23 08:08:09;;;;;;;;;;;;;;;27.75;48.47852;102366.2;;;;-67
2023/06/23 08:08:40;;;;;;;0.3;0.1;;;;;;;;;;;;;-68
2023/06/23 08:13:09;;;;;;;;;;;;;;;27.83;48.26563;102362.2;;;;-68
2023/06/23 08:18:09;;;;;;;;;;;;;;;28.02;47.8916;102371.6;;;;-69
2023/06/23 08:23:09;;;;;;;;;;;;;;;28.18;47.64063;102374.3;;;;-67
2023/06/23 08:28:09;;;;;;;;;;;;;;;28.28;47.37207;102376.8;;;;-68
2023/06/23 08:33:09;;;;;;;;;;;;;;;28.49;47.01074;102375.4;;;;-68
2023/06/23 08:38:12;;;;;;;;;;;;;;;28.69;46.6582;102376.7;;;;-68
2023/06/23 08:38:44;;;;;;;0.2;0;;;;;;;;;;;;;-68
2023/06/23 08:43:10;;;;;;;;;;;;;;;28.82;46.22852;102387.9;;;;-72
2023/06/23 08:48:10;;;;;;;;;;;;;;;29.01;45.80566;102394.1;;;;-73
2023/06/23 08:53:10;;;;;;;;;;;;;;;29.27;44.51367;102398.9;;;;-72
2023/06/23 08:58:09;;;;;;;;;;;;;;;29.39;44.38574;102401.8;;;;-73
2023/06/23 09:03:09;;;;;;;;;;;;;;;29.52;43.7207;102407.1;;;;-72
2023/06/23 09:08:09;;;;;;;;;;;;;;;29.62;43.32129;102415;;;;-72
2023/06/23 09:08:54;;;;;;;0.1;0;;;;;;;;;;;;;-71
2023/06/23 09:13:24;;;;;;;;;;;;;;;29.67;43.10449;102417;;;;-71
2023/06/23 09:18:12;;;;;;;;;;;;;;;29.77;42.21387;102416.3;;;;-70
2023/06/23 09:23:12;;;;;;;;;;;;;;;29.97;41.71777;102425.8;;;;-71
2023/06/23 09:28:10;;;;;;;;;;;;;;;30.02;41.55859;102424.4;;;;-72
2023/06/23 09:33:11;;;;;;;;;;;;;;;30.3;41.01172;102426.9;;;;-71
2023/06/23 09:38:17;;;;;;;;;;;;;;;30.54;40.25977;102432.3;;;;-71
2023/06/23 09:38:54;;;;;;;0.2;0;;;;;;;;;;;;;-71
2023/06/23 09:43:09;;;;;;;;;;;;;;;30.64;39.87109;102442;;;;-72
2023/06/23 09:48:18;;;;;;;;;;;;;;;30.87;39.80957;102439;;;;-72
2023/06/23 09:53:11;;;;;;;;;;;;;;;30.9;39.21387;102438.6;;;;-72
2023/06/23 09:58:10;;;;;;;;;;;;;;;31.18;38.65137;102437.3;;;;-70
2023/06/23 10:03:09;;;;;;;;;;;;;;;31.28;37.88477;102438.7;;;;-72
2023/06/23 10:08:15;;;;;;;;;;;;;;;31.48;38.18262;102436.6;;;;-71
2023/06/23 10:09:02;;;;;;;0.2;0;;;;;;;;;;;;;-71
2023/06/23 10:13:09;;;;;;;;;;;;;;;31.62;37.62988;102438.5;;;;-71
2023/06/23 10:18:10;;;;;;;;;;;;;;;31.81;37.33984;102436.4;;;;-72
2023/06/23 10:23:10;;;;;;;;;;;;;;;31.98;36.67188;102440.4;;;;-70
2023/06/23 10:28:14;;;;;;;;;;;;;;;32.06;36.37305;102443.3;;;;-72
2023/06/23 10:33:13;;;;;;;;;;;;;;;32.18;36.0293;102447.2;;;;-71
2023/06/23 10:38:12;;;;;;;;;;;;;;;32.12;37.36523;102453.8;;;;-72
2023/06/23 10:39:06;;;;;;;0.3;0.1;;;;;;;;;;;;;-71
2023/06/23 10:43:11;;;;;;;;;;;;;;;32.22;34.80762;102447.6;;;;-71
2023/06/23 10:48:09;;;;;;;;;;;;;;;32.29;35.08398;102445.9;;;;-72
2023/06/23 10:53:20;;;;;;;;;;;;;;;32.44;34.66016;102448.7;;;;-72
2023/06/23 10:58:17;;;;;;;;;;;;;;;32.6;35.42578;102447.9;;;;-72
2023/06/23 11:03:09;;;;;;;;;;;;;;;32.71;36.87207;102458;;;;-72
2023/06/23 11:08:12;;;;;;;;;;;;;;;32.88;37.47559;102464.6;;;;-72
2023/06/23 11:09:21;;;;;;;0.2;0;;;;;;;;;;;;;-72
2023/06/23 11:13:15;;;;;;;;;;;;;;;33.08;36.41895;102471;;;;-72
2023/06/23 11:18:09;;;;;;;;;;;;;;;33.1;35.75977;102469.5;;;;-72
2023/06/23 11:23:12;;;;;;;;;;;;;;;33.35;35.75586;102467;;;;-72
2023/06/23 11:28:22;;;;;;;;;;;;;;;33.56;36.69238;102473.3;;;;-71
2023/06/23 11:33:21;;;;;;;;;;;;;;;33.67;36.18262;102472.5;;;;-72
2023/06/23 11:38:10;;;;;;;;;;;;;;;33.61;36.60254;102475.1;;;;-72
2023/06/23 11:39:17;;;;;;;0.1;0;;;;;;;;;;;;;-71
2023/06/23 11:43:11;;;;;;;;;;;;;;;33.39;36.79688;102486.4;;;;-72
2023/06/23 11:48:09;;;;;;;;;;;;;;;33.1;37.45898;102496.1;;;;-74
2023/06/23 11:53:13;;;;;;;;;;;;;;;33.19;37.5127;102494;;;;-72
2023/06/23 11:58:14;;;;;;;;;;;;;;;33.4;36.80957;102489.9;;;;-72
2023/06/23 12:03:19;;;;;;;;;;;;;;;33.51;36.60645;102494.6;;;;-72
2023/06/23 12:08:09;;;;;;;;;;;;;;;33.56;36.44531;102498.2;;;;-72
2023/06/23 12:09:26;;;;;;;0.1;0;;;;;;;;;;;;;-72
2023/06/23 12:13:09;;;;;;;;;;;;;;;33.54;36.37305;102502.4;;;;-71
2023/06/23 12:18:10;;;;;;;;;;;;;;;33.54;35.5459;102497.7;;;;-71
2023/06/23 12:23:14;;;;;;;;;;;;;;;33.63;36.12012;102500.4;;;;-72
2023/06/23 12:28:14;;;;;;;;;;;;;;;33.71;35.14551;102498.6;;;;-72
2023/06/23 12:33:18;;;;;;;;;;;;;;;33.65;36.59375;102491.9;;;;-71
2023/06/23 12:38:16;;;;;;;;;;;;;;;33.75;36.57813;102496.7;;;;-71
2023/06/23 12:39:32;;;;;;;0.1;0;;;;;;;;;;;;;-71
2023/06/23 12:43:17;;;;;;;;;;;;;;;33.64;36.0625;102501.8;;;;-71
2023/06/23 12:48:10;;;;;;;;;;;;;;;33.59;36.6123;102502.3;;;;-72
2023/06/23 12:53:09;;;;;;;;;;;;;;;33.44;35.7627;102505.6;;;;-72
2023/06/23 12:58:12;;;;;;;;;;;;;;;33.28;37.22461;102517.3;;;;-72
2023/06/23 13:03:13;;;;;;;;;;;;;;;33.27;36.84766;102518;;;;-72
2023/06/23 13:08:09;;;;;;;;;;;;;;;33.27;36.61035;102521.5;;;;-70
2023/06/23 13:09:42;;;;;;;0.2;0;;;;;;;;;;;;;-72
2023/06/23 13:13:12;;;;;;;;;;;;;;;33.27;35.99707;102521.9;;;;-73
2023/06/23 13:18:15;;;;;;;;;;;;;;;33.26;35.46582;102519.7;;;;-72
2023/06/23 13:23:11;;;;;;;;;;;;;;;33.28;36.11621;102518.9;;;;-73
2023/06/23 13:28:11;;;;;;;;;;;;;;;33.35;35.80273;102512.3;;;;-72
2023/06/23 13:33:10;;;;;;;;;;;;;;;33.37;35.39063;102516.1;;;;-71
2023/06/23 13:38:12;;;;;;;;;;;;;;;33.34;35.16504;102519.5;;;;-71
2023/06/23 13:39:44;;;;;;;0.2;0;;;;;;;;;;;;;-72
2023/06/23 13:43:20;;;;;;;;;;;;;;;33.36;35.56738;102517.8;;;;-72
2023/06/23 13:48:18;;;;;;;;;;;;;;;33.49;35.84961;102513.5;;;;-71
2023/06/23 13:53:12;;;;;;;;;;;;;;;33.52;34.90723;102516.3;;;;-72
2023/06/23 13:58:09;;;;;;;;;;;;;;;33.72;34.34277;102511.1;;;;-73
2023/06/23 14:03:09;;;;;;;;;;;;;;;33.84;34.16309;102505.9;;;;-72
2023/06/23 14:08:09;;;;;;;;;;;;;;;33.83;33.5;102507.2;;;;-71
2023/06/23 14:09:48;;;;;;;0.2;0;;;;;;;;;;;;;-72
2023/06/23 14:13:10;;;;;;;;;;;;;;;33.84;34.50586;102510.5;;;;-71
2023/06/23 14:18:09;;;;;;;;;;;;;;;33.91;34.2041;102517.5;;;;-71
2023/06/23 14:23:12;;;;;;;;;;;;;;;33.81;34.51563;102518.4;;;;-72
2023/06/23 14:28:14;;;;;;;;;;;;;;;33.8;34.16016;102519.7;;;;-72
2023/06/23 14:33:13;;;;;;;;;;;;;;;33.64;34.37305;102520.9;;;;-71
2023/06/23 14:38:12;;;;;;;;;;;;;;;33.54;35.09766;102517;;;;-72
2023/06/23 14:39:53;;;;;;;0.2;0;;;;;;;;;;;;;-71
2023/06/23 14:43:09;;;;;;;;;;;;;;;33.64;34.58594;102513.8;;;;-71
2023/06/23 14:48:10;;;;;;;;;;;;;;;33.67;34.64746;102517.7;;;;-74
2023/06/23 14:53:12;;;;;;;;;;;;;;;33.77;34.38281;102527.8;;;;-71
2023/06/23 14:58:12;;;;;;;;;;;;;;;33.76;33.96875;102536.3;;;;-72
2023/06/23 15:03:09;;;;;;;;;;;;;;;33.64;34.6084;102543.7;;;;-67
2023/06/23 15:08:09;;;;;;;;;;;;;;;33.38;34.66016;102541.8;;;;-68
2023/06/23 15:09:59;;;;;;;0.2;0;;;;;;;;;;;;;-67
2023/06/23 15:13:13;;;;;;;;;;;;;;;33.38;34.05762;102540.1;;;;-67
2023/06/23 15:18:10;;;;;;;;;;;;;;;33.26;33.55371;102535.2;;;;-66
2023/06/23 15:23:09;;;;;;;;;;;;;;;33.01;33.52246;102536.2;;;;-67
2023/06/23 15:28:10;;;;;;;;;;;;;;;32.87;33.64258;102535.4;;;;-66
2023/06/23 15:33:09;;;;;;;;;;;;;;;32.79;33.73145;102524.6;;;;-69
2023/06/23 15:38:11;;;;;;;;;;;;;;;32.83;33.50977;102527.9;;;;-66
2023/06/23 15:40:06;;;;;;;0.2;0;;;;;;;;;;;;;-67
2023/06/23 15:43:09;;;;;;;;;;;;;;;32.79;33.38867;102537;;;;-67
2023/06/23 15:48:12;;;;;;;;;;;;;;;32.67;33.17871;102535.8;;;;-68
2023/06/23 15:53:09;;;;;;;;;;;;;;;32.39;33.83008;102534.4;;;;-67
2023/06/23 15:58:09;;;;;;;;;;;;;;;32.28;34.41211;102530;;;;-67
2023/06/23 16:03:10;;;;;;;;;;;;;;;32.18;33.68555;102529.8;;;;-67
2023/06/23 16:08:12;;;;;;;;;;;;;;;32.09;34.10254;102526.4;;;;-67
2023/06/23 16:10:12;;;;;;;0.1;0;;;;;;;;;;;;;-67
2023/06/23 16:13:09;;;;;;;;;;;;;;;32.01;34.01465;102535.4;;;;-67
2023/06/23 16:18:09;;;;;;;;;;;;;;;31.98;34.08301;102532.7;;;;-67
2023/06/23 16:23:09;;;;;;;;;;;;;;;31.9;34.12402;102529.9;;;;-67
2023/06/23 16:28:09;;;;;;;;;;;;;;;31.86;34.03906;102530.3;;;;-67
2023/06/23 16:33:09;;;;;;;;;;;;;;;31.73;33.94727;102520;;;;-67
2023/06/23 16:38:09;;;;;;;;;;;;;;;31.54;34.65039;102525.2;;;;-67
2023/06/23 16:40:21;;;;;;;0.2;0;;;;;;;;;;;;;-65
2023/06/23 16:43:09;;;;;;;;;;;;;;;31.34;34.82324;102519.7;;;;-67
2023/06/23 16:48:09;;;;;;;;;;;;;;;31.24;34.90918;102514.1;;;;-65
2023/06/23 16:53:10;;;;;;;;;;;;;;;31.12;34.9707;102514.1;;;;-66
2023/06/23 16:58:09;;;;;;;;;;;;;;;30.99;35.05469;102512.1;;;;-65
2023/06/23 17:03:09;;;;;;;;;;;;;;;30.88;35.18652;102519.1;;;;-71
2023/06/23 17:08:10;;;;;;;;;;;;;;;30.71;35.31543;102521.5;;;;-70
2023/06/23 17:10:23;;;;;;;0.1;0;;;;;;;;;;;;;-71
2023/06/23 17:13:09;;;;;;;;;;;;;;;30.5;35.66211;102524.8;;;;-70
2023/06/23 17:18:10;;;;;;;;;;;;;;;30.3;35.78711;102521.7;;;;-71
2023/06/23 17:23:09;;;;;;;;;;;;;;;30.13;35.9502;102516.2;;;;-71
2023/06/23 17:28:09;;;;;;;;;;;;;;;30.04;36.00098;102520.2;;;;-71
2023/06/23 17:33:09;;;;;;;;;;;;;;;30;35.9502;102516.7;;;;-67
2023/06/23 17:38:09;;;;;;;;;;;;;;;29.96;35.88867;102516.7;;;;-70
2023/06/23 17:40:28;;;;;;;0.2;0;;;;;;;;;;;;;-67
2023/06/23 17:43:09;;;;;;;;;;;;;;;29.92;35.97949;102516.1;;;;-67
2023/06/23 17:48:10;;;;;;;;;;;;;;;29.87;36.11621;102511.2;;;;-66
2023/06/23 17:53:09;;;;;;;;;;;;;;;29.79;36.33301;102505.7;;;;-68
2023/06/23 17:58:09;;;;;;;;;;;;;;;29.71;36.37305;102506;;;;-67
2023/06/23 18:03:09;;;;;;;;;;;;;;;29.54;36.45313;102508.8;;;;-67
2023/06/23 18:08:09;;;;;;;;;;;;;;;29.37;36.52051;102507.5;;;;-67
2023/06/23 18:10:34;;;;;;;0.8;0.2;;;;;;;;;;;;;-67
2023/06/23 18:13:10;;;;;;;;;;;;;;;29.17;36.59766;102508.3;;;;-66
2023/06/23 18:18:11;;;;;;;;;;;;;;;28.92;36.67188;102501.1;;;;-68
2023/06/23 18:23:09;;;;;;;;;;;;;;;28.68;36.76953;102500.5;;;;-68
2023/06/23 18:28:09;;;;;;;;;;;;;;;28.48;37.02051;102503.7;;;;-67
2023/06/23 18:33:09;;;;;;;;;;;;;;;28.29;37.13379;102503.6;;;;-64
2023/06/23 18:38:09;;;;;;;;;;;;;;;28.1;37.28223;102504.3;;;;-65
2023/06/23 18:40:39;;;;;;;0.1;0;;;;;;;;;;;;;-65
2023/06/23 18:43:09;;;;;;;;;;;;;;;27.96;37.28125;102496.7;;;;-65
2023/06/23 18:48:09;;;;;;;;;;;;;;;27.82;37.2002;102500.6;;;;-66
2023/06/23 18:53:09;;;;;;;;;;;;;;;27.7;36.96875;102495;;;;-67
2023/06/23 18:58:09;;;;;;;;;;;;;;;27.57;36.90039;102501;;;;-64
2023/06/23 19:03:09;;;;;;;;;;;;;;;27.44;36.5752;102504.1;;;;-66
2023/06/23 19:08:09;;;;;;;;;;;;;;;27.28;36.44629;102501.1;;;;-65
2023/06/23 19:10:45;;;;;;;0.2;0;;;;;;;;;;;;;-64
2023/06/23 19:13:10;;;;;;;;;;;;;;;27.11;36.74512;102504.8;;;;-64
2023/06/23 19:18:09;;;;;;;;;;;;;;;26.92;36.89453;102507.1;;;;-65
2023/06/23 19:23:09;;;;;;;;;;;;;;;26.74;36.96094;102509.2;;;;-65
2023/06/23 19:28:09;;;;;;;;;;;;;;;26.57;37.35254;102505.5;;;;-65
2023/06/23 19:33:09;;;;;;;;;;;;;;;26.4;37.31543;102502.9;;;;-66
2023/06/23 19:38:09;;;;;;;;;;;;;;;26.22;37.67285;102501.5;;;;-65
2023/06/23 19:40:48;;;;;;;0.2;0;;;;;;;;;;;;;-64
2023/06/23 19:43:09;;;;;;;;;;;;;;;26.06;37.24121;102489.5;;;;-67
2023/06/23 19:48:09;;;;;;;;;;;;;;;25.91;37.69238;102488.5;;;;-65
2023/06/23 19:53:09;;;;;;;;;;;;;;;25.75;37.65625;102496.4;;;;-68
2023/06/23 19:58:11;;;;;;;;;;;;;;;25.62;37.76074;102491;;;;-68
2023/06/23 20:03:09;;;;;;;;;;;;;;;25.47;37.81934;102497.1;;;;-65
2023/06/23 20:08:09;;;;;;;;;;;;;;;25.33;38.21289;102500;;;;-65
2023/06/23 20:10:52;;;;;;;0.2;0;;;;;;;;;;;;;-67
2023/06/23 20:13:09;;;;;;;;;;;;;;;25.2;38.24707;102505.5;;;;-68
2023/06/23 20:18:09;;;;;;;;;;;;;;;25.05;38.4668;102497.8;;;;-68
2023/06/23 20:23:12;;;;;;;;;;;;;;;24.91;38.89355;102502.4;;;;-69
2023/06/23 20:28:09;;;;;;;;;;;;;;;24.76;38.8584;102504.6;;;;-67
2023/06/23 20:33:09;;;;;;;;;;;;;;;24.65;39.32227;102506.8;;;;-67
2023/06/23 20:38:09;;;;;;;;;;;;;;;24.51;39.22949;102508.1;;;;-69
2023/06/23 20:40:56;;;;;;;1.3;0.2;;;;;;;;;;;;;-68
2023/06/23 20:43:09;;;;;;;;;;;;;;;24.41;39.34766;102501.9;;;;-69
2023/06/23 20:48:10;;;;;;;;;;;;;;;24.3;39.52246;102503.6;;;;-68
2023/06/23 20:53:13;;;;;;;;;;;;;;;24.19;39.68652;102504.1;;;;-67
2023/06/23 20:58:09;;;;;;;;;;;;;;;24.11;39.8291;102502.5;;;;-69
2023/06/23 21:03:09;;;;;;;;;;;;;;;24.02;39.90234;102500.7;;;;-68
2023/06/23 21:08:10;;;;;;;;;;;;;;;23.9;40.03125;102501.3;;;;-71
2023/06/23 21:11:00;;;;;;;0.2;0.1;;;;;;;;;;;;;-68
2023/06/23 21:13:09;;;;;;;;;;;;;;;23.84;40.11719;102505.4;;;;-68
2023/06/23 21:18:09;;;;;;;;;;;;;;;23.73;40.43066;102507.5;;;;-67
2023/06/23 21:23:09;;;;;;;;;;;;;;;23.62;40.39746;102507;;;;-69
2023/06/23 21:28:09;;;;;;;;;;;;;;;23.51;40.67578;102501.1;;;;-68
2023/06/23 21:33:09;;;;;;;;;;;;;;;23.39;41.10254;102501.2;;;;-68
2023/06/23 21:38:10;;;;;;;;;;;;;;;23.27;41.06836;102503.5;;;;-67
2023/06/23 21:41:04;;;;;;;0.2;0;;;;;;;;;;;;;-69
2023/06/23 21:43:12;;;;;;;;;;;;;;;23.13;41.14941;102502.2;;;;-67
2023/06/23 21:48:09;;;;;;;;;;;;;;;23.01;41.44824;102509.1;;;;-68
2023/06/23 21:53:09;;;;;;;;;;;;;;;22.88;41.72461;102507.7;;;;-68
2023/06/23 21:58:10;;;;;;;;;;;;;;;22.77;41.98926;102501.1;;;;-67
2023/06/23 22:03:09;;;;;;;;;;;;;;;22.66;42.11816;102499.3;;;;-67
2023/06/23 22:08:09;;;;;;;;;;;;;;;22.55;42.46387;102501.3;;;;-68
2023/06/23 22:11:07;;;;;;;0.2;0;;;;;;;;;;;;;-66
2023/06/23 22:13:09;;;;;;;;;;;;;;;22.41;42.80664;102501.5;;;;-66
2023/06/23 22:18:12;;;;;;;;;;;;;;;22.31;43.06152;102501.7;;;;-68
2023/06/23 22:23:09;;;;;;;;;;;;;;;22.24;42.99707;102502.6;;;;-67
2023/06/23 22:28:09;;;;;;;;;;;;;;;22.13;43.58398;102501.7;;;;-68
2023/06/23 22:33:09;;;;;;;;;;;;;;;22.01;43.58496;102501.2;;;;-67
2023/06/23 22:38:09;;;;;;;;;;;;;;;21.92;44.36719;102500.6;;;;-67
2023/06/23 22:41:11;;;;;;;0.3;0.1;;;;;;;;;;;;;-67
2023/06/23 22:43:11;;;;;;;;;;;;;;;21.87;44.53418;102499.5;;;;-66
2023/06/23 22:48:09;;;;;;;;;;;;;;;21.77;44.73047;102498.4;;;;-67
2023/06/23 22:53:09;;;;;;;;;;;;;;;21.69;45.06738;102504.3;;;;-67
2023/06/23 22:58:09;;;;;;;;;;;;;;;21.61;45.88379;102505.1;;;;-69
2023/06/23 23:03:09;;;;;;;;;;;;;;;21.52;45.89746;102505;;;;-67
2023/06/23 23:08:09;;;;;;;;;;;;;;;21.46;46.28223;102500.1;;;;-67
2023/06/23 23:11:14;;;;;;;0.4;0.2;;;;;;;;;;;;;-67
2023/06/23 23:13:09;;;;;;;;;;;;;;;21.38;46.50293;102493.6;;;;-68
2023/06/23 23:18:09;;;;;;;;;;;;;;;21.3;46.83691;102491.9;;;;-67
2023/06/23 23:23:09;;;;;;;;;;;;;;;21.21;46.79492;102493.4;;;;-68
2023/06/23 23:28:09;;;;;;;;;;;;;;;21.15;46.86719;102500;;;;-67
2023/06/23 23:33:09;;;;;;;;;;;;;;;21.07;46.98535;102500.9;;;;-68
2023/06/23 23:38:09;;;;;;;;;;;;;;;21.01;46.86328;102504.8;;;;-65
2023/06/23 23:41:18;;;;;;;0.2;0;;;;;;;;;;;;;-66
2023/06/23 23:43:09;;;;;;;;;;;;;;;20.92;47.24414;102499.6;;;;-67
2023/06/23 23:48:09;;;;;;;;;;;;;;;20.87;46.83789;102502.1;;;;-67
2023/06/23 23:53:09;;;;;;;;;;;;;;;20.81;46.92285;102511.3;;;;-67
2023/06/23 23:58:09;;;;;;;;;;;;;;;20.69;46.91113;102506.8;;;;-67
